createdAt,value
2019-01-04T00:01:03.043Z,-3.06
2019-01-04T00:03:32.532Z,-2.98
2019-01-04T00:06:02.106Z,-2.84
2019-01-04T00:08:31.599Z,-2.78
2019-01-04T00:11:01.052Z,-2.77
2019-01-04T00:13:30.487Z,-2.86
2019-01-04T00:15:59.976Z,-2.76
2019-01-04T00:18:29.491Z,-2.72
2019-01-04T00:20:58.943Z,-2.72
2019-01-04T00:23:28.413Z,-2.77
2019-01-04T00:25:57.901Z,-2.94
2019-01-04T00:28:27.411Z,-2.95
2019-01-04T00:30:57.071Z,-3.03
2019-01-04T00:33:26.595Z,-2.95
2019-01-04T00:35:56.069Z,-3.05
2019-01-04T00:38:25.588Z,-3.14
2019-01-04T00:40:55.035Z,-3.11
2019-01-04T00:43:24.463Z,-3.20
2019-01-04T00:45:53.952Z,-3.20
2019-01-04T00:48:23.411Z,-3.17
2019-01-04T00:50:52.854Z,-3.31
2019-01-04T00:53:22.500Z,-3.24
2019-01-04T00:56:23.417Z,-3.28
2019-01-04T00:59:48.392Z,-3.16
2019-01-04T01:03:05.100Z,-3.02
2019-01-04T01:06:15.140Z,-3.02
2019-01-04T01:09:29.573Z,-3.07
2019-01-04T01:12:44.912Z,-2.96
2019-01-04T01:16:00.983Z,-3.11
2019-01-04T01:19:15.739Z,-3.11
2019-01-04T01:22:22.234Z,-3.08
2019-01-04T01:25:27.318Z,-3.27
2019-01-04T01:28:39.356Z,-3.47
2019-01-04T01:31:43.561Z,-3.36
2019-01-04T01:34:53.862Z,-3.24
2019-01-04T01:38:08.969Z,-3.44
2019-01-04T01:40:58.689Z,-3.51
2019-01-04T01:44:01.047Z,-3.52
2019-01-04T01:46:47.104Z,-3.48
2019-01-04T01:49:57.467Z,-3.45
2019-01-04T01:52:34.107Z,-3.60
2019-01-04T01:55:03.606Z,-3.36
2019-01-04T01:57:33.105Z,-3.36
2019-01-04T02:00:09.108Z,-3.31
2019-01-04T02:02:38.555Z,-3.32
2019-01-04T02:05:08.035Z,-3.26
2019-01-04T02:07:37.522Z,-3.27
2019-01-04T02:10:08.617Z,-3.24
2019-01-04T02:12:38.260Z,-3.22
2019-01-04T02:15:08.411Z,-3.14
2019-01-04T02:17:37.907Z,-3.28
2019-01-04T02:20:08.004Z,-3.24
2019-01-04T02:22:37.516Z,-3.22
2019-01-04T02:25:07.470Z,-3.19
2019-01-04T02:27:36.936Z,-3.31
2019-01-04T02:30:07.762Z,-3.31
2019-01-04T02:32:37.265Z,-3.33
2019-01-04T02:35:06.729Z,-3.31
2019-01-04T02:37:36.217Z,-3.50
2019-01-04T02:40:05.724Z,-3.59
2019-01-04T02:42:35.208Z,-3.85
2019-01-04T02:45:04.792Z,-3.92
2019-01-04T02:47:34.310Z,-3.85
2019-01-04T02:50:03.808Z,-3.83
2019-01-04T02:52:33.274Z,-3.82
2019-01-04T02:55:02.775Z,-3.76
2019-01-04T02:57:32.279Z,-3.79
2019-01-04T03:00:01.765Z,-3.77
2019-01-04T03:02:31.330Z,-3.90
2019-01-04T03:05:00.812Z,-3.78
2019-01-04T03:07:30.420Z,-3.83
2019-01-04T03:09:59.881Z,-3.92
2019-01-04T03:12:29.290Z,-3.93
2019-01-04T03:14:58.753Z,-4.06
2019-01-04T03:17:28.213Z,-4.18
2019-01-04T03:19:57.696Z,-4.32
2019-01-04T03:22:27.210Z,-4.29
2019-01-04T03:24:56.740Z,-4.30
2019-01-04T03:27:26.528Z,-4.29
2019-01-04T03:29:55.980Z,-4.39
2019-01-04T03:32:25.491Z,-4.38
2019-01-04T03:34:55.017Z,-4.34
2019-01-04T03:37:24.494Z,-4.32
2019-01-04T03:39:53.926Z,-4.43
2019-01-04T03:42:23.403Z,-4.37
2019-01-04T03:44:52.882Z,-4.26
2019-01-04T03:47:22.348Z,-4.25
2019-01-04T03:49:51.848Z,-4.16
2019-01-04T03:52:21.330Z,-4.14
2019-01-04T03:54:50.839Z,-4.10
2019-01-04T03:57:20.336Z,-4.10
2019-01-04T03:59:49.819Z,-4.14
2019-01-04T04:02:19.258Z,-4.14
2019-01-04T04:04:48.724Z,-4.09
2019-01-04T04:07:18.244Z,-4.10
2019-01-04T04:09:47.696Z,-4.11
2019-01-04T04:12:17.161Z,-4.04
2019-01-04T04:14:46.632Z,-4.08
2019-01-04T04:17:16.244Z,-4.12
2019-01-04T04:19:45.736Z,-4.06
2019-01-04T04:22:15.188Z,-4.03
2019-01-04T04:24:44.665Z,-4.09
2019-01-04T04:27:14.126Z,-4.29
2019-01-04T04:29:43.604Z,-4.21
2019-01-04T04:32:13.086Z,-4.29
2019-01-04T04:34:42.613Z,-4.35
2019-01-04T04:37:12.127Z,-4.17
2019-01-04T04:39:41.595Z,-4.08
2019-01-04T04:42:11.104Z,-4.28
2019-01-04T04:44:40.628Z,-4.57
2019-01-04T04:47:10.101Z,-4.58
2019-01-04T04:49:39.545Z,-4.52
2019-01-04T04:52:08.979Z,-4.50
2019-01-04T04:54:38.419Z,-4.51
2019-01-04T04:57:07.930Z,-4.40
2019-01-04T04:59:37.451Z,-4.28
2019-01-04T05:02:07.064Z,-4.22
2019-01-04T05:04:36.564Z,-4.20
2019-01-04T05:07:06.019Z,-4.11
2019-01-04T05:09:35.564Z,-4.21
2019-01-04T05:12:05.019Z,-4.32
2019-01-04T05:14:34.493Z,-4.36
2019-01-04T05:17:03.970Z,-4.23
2019-01-04T05:19:33.422Z,-4.12
2019-01-04T05:22:02.969Z,-4.18
2019-01-04T05:24:32.414Z,-4.35
2019-01-04T05:27:01.932Z,-4.42
2019-01-04T05:29:31.395Z,-4.47
2019-01-04T05:32:00.833Z,-4.42
2019-01-04T05:34:30.320Z,-4.24
2019-01-04T05:36:59.754Z,-4.10
2019-01-04T05:39:29.277Z,-4.31
2019-01-04T05:41:58.728Z,-4.49
2019-01-04T05:44:28.268Z,-4.51
2019-01-04T05:46:57.755Z,-4.47
2019-01-04T05:49:27.244Z,-4.44
2019-01-04T05:51:56.673Z,-4.42
2019-01-04T05:54:26.225Z,-4.36
2019-01-04T05:56:55.670Z,-4.33
2019-01-04T05:59:25.256Z,-4.25
2019-01-04T06:01:54.744Z,-4.25
2019-01-04T06:04:24.207Z,-4.38
2019-01-04T06:06:53.673Z,-4.37
2019-01-04T06:09:23.157Z,-4.38
2019-01-04T06:11:52.666Z,-4.29
2019-01-04T06:14:22.116Z,-4.17
2019-01-04T06:16:51.631Z,-4.07
2019-01-04T06:19:21.140Z,-4.04
2019-01-04T06:21:50.630Z,-4.09
2019-01-04T06:24:20.124Z,-4.09
2019-01-04T06:26:49.621Z,-4.02
2019-01-04T06:29:19.121Z,-4.16
2019-01-04T06:31:48.632Z,-4.08
2019-01-04T06:34:18.155Z,-3.98
2019-01-04T06:36:47.602Z,-4.06
2019-01-04T06:39:17.151Z,-3.97
2019-01-04T06:41:46.661Z,-4.01
2019-01-04T06:44:16.137Z,-3.87
2019-01-04T06:47:22.701Z,-3.94
2019-01-04T06:49:52.653Z,-3.83
2019-01-04T06:52:23.325Z,-3.70
2019-01-04T06:55:43.152Z,-3.83
2019-01-04T06:58:12.679Z,-3.74
2019-01-04T07:00:42.259Z,-3.71
2019-01-04T07:03:11.830Z,-3.81
2019-01-04T07:05:41.335Z,-3.80
2019-01-04T07:08:10.826Z,-4.06
2019-01-04T07:10:40.253Z,-3.82
2019-01-04T07:13:09.817Z,-3.76
2019-01-04T07:15:39.364Z,-3.77
2019-01-04T07:18:08.836Z,-3.76
2019-01-04T07:20:38.329Z,-4.01
2019-01-04T07:23:07.886Z,-4.02
2019-01-04T07:25:37.413Z,-3.91
2019-01-04T07:28:06.893Z,-4.09
2019-01-04T07:30:36.540Z,-4.04
2019-01-04T07:33:06.079Z,-3.98
2019-01-04T07:35:35.691Z,-4.02
2019-01-04T07:38:05.154Z,-3.82
2019-01-04T07:40:34.641Z,-3.89
2019-01-04T07:43:04.090Z,-3.91
2019-01-04T07:45:33.611Z,-3.97
2019-01-04T07:48:03.105Z,-3.95
2019-01-04T07:50:32.601Z,-3.83
2019-01-04T07:53:02.183Z,-3.56
2019-01-04T07:55:31.688Z,-3.44
2019-01-04T07:58:01.194Z,-3.30
2019-01-04T08:00:30.684Z,-3.45
2019-01-04T08:03:13.825Z,-3.35
2019-01-04T08:05:43.298Z,-3.44
2019-01-04T08:08:12.809Z,-3.30
2019-01-04T08:10:42.403Z,-3.24
2019-01-04T08:13:11.995Z,-3.28
2019-01-04T08:15:41.517Z,-3.22
2019-01-04T08:18:11.016Z,-3.26
2019-01-04T08:20:40.570Z,-3.11
2019-01-04T08:23:10.079Z,-3.15
2019-01-04T08:25:39.586Z,-3.27
2019-01-04T08:28:09.075Z,-3.28
2019-01-04T08:30:38.526Z,-3.31
2019-01-04T08:33:08.025Z,-3.44
2019-01-04T08:35:37.499Z,-3.18
2019-01-04T08:38:06.932Z,-2.89
2019-01-04T08:40:36.439Z,-2.80
2019-01-04T08:43:05.920Z,-3.09
2019-01-04T08:45:35.407Z,-2.94
2019-01-04T08:48:04.974Z,-2.79
2019-01-04T08:50:34.467Z,-2.60
2019-01-04T08:53:03.961Z,-2.64
2019-01-04T08:55:33.423Z,-2.75
2019-01-04T08:58:02.896Z,-2.59
2019-01-04T09:00:32.505Z,-2.66
2019-01-04T09:03:02.031Z,-2.79
2019-01-04T09:05:31.534Z,-2.69
2019-01-04T09:08:03.090Z,-2.46
2019-01-04T09:10:32.659Z,-2.29
2019-01-04T09:13:03.689Z,-2.17
2019-01-04T09:15:33.479Z,-2.32
2019-01-04T09:18:02.968Z,-2.13
2019-01-04T09:20:32.445Z,-1.96
2019-01-04T09:23:01.921Z,-1.71
2019-01-04T09:25:31.422Z,-1.64
2019-01-04T09:28:00.874Z,-1.44
2019-01-04T09:30:30.354Z,-1.26
2019-01-04T09:32:59.827Z,-1.18
2019-01-04T09:35:29.319Z,-1.08
2019-01-04T09:37:58.826Z,-1.18
2019-01-04T09:40:28.295Z,-1.01
2019-01-04T09:42:57.778Z,-0.84
2019-01-04T09:45:27.328Z,-0.81
2019-01-04T09:47:56.827Z,-0.70
2019-01-04T09:50:26.363Z,-0.77
2019-01-04T09:52:55.849Z,-1.35
2019-01-04T09:55:25.327Z,-1.57
2019-01-04T09:57:54.805Z,-1.23
2019-01-04T10:00:24.352Z,-1.15
2019-01-04T10:02:53.886Z,-1.19
2019-01-04T10:05:23.339Z,-1.12
2019-01-04T10:07:52.785Z,-1.05
2019-01-04T10:10:22.232Z,-1.17
2019-01-04T10:12:51.680Z,-1.21
2019-01-04T10:15:21.203Z,-1.32
2019-01-04T10:17:50.677Z,-1.09
2019-01-04T10:20:20.144Z,-1.43
2019-01-04T10:22:49.622Z,-1.39
2019-01-04T10:25:19.101Z,-1.28
2019-01-04T10:27:48.660Z,-1.12
2019-01-04T10:30:31.919Z,-0.88
2019-01-04T10:33:01.404Z,-0.99
2019-01-04T10:35:32.351Z,-1.06
2019-01-04T10:38:01.999Z,-0.96
2019-01-04T10:40:31.500Z,-0.87
2019-01-04T10:43:01.270Z,-0.51
2019-01-04T10:45:30.727Z,-0.16
2019-01-04T10:48:00.201Z,0.01
2019-01-04T10:50:29.714Z,0.10
2019-01-04T10:52:59.172Z,0.04
2019-01-04T10:55:28.657Z,0.24
2019-01-04T10:57:58.131Z,0.15
2019-01-04T11:00:27.713Z,-0.02
2019-01-04T11:02:57.185Z,0.08
2019-01-04T11:05:26.624Z,0.00
2019-01-04T11:07:56.419Z,0.04
2019-01-04T11:10:25.929Z,0.20
2019-01-04T11:12:55.379Z,-0.06
2019-01-04T11:15:24.848Z,-0.03
2019-01-04T11:17:54.441Z,-0.08
2019-01-04T11:20:48.404Z,-0.27
2019-01-04T11:24:00.827Z,-0.37
2019-01-04T11:26:54.477Z,-0.47
2019-01-04T11:30:13.000Z,-0.41
2019-01-04T11:33:07.009Z,-0.41
2019-01-04T11:36:12.321Z,-0.23
2019-01-04T11:38:51.776Z,-0.11
2019-01-04T11:41:45.539Z,0.14
2019-01-04T11:44:53.461Z,0.35
2019-01-04T11:47:52.010Z,0.48
2019-01-04T11:51:13.382Z,0.42
2019-01-04T11:53:42.978Z,0.41
2019-01-04T11:56:12.589Z,0.27
2019-01-04T11:58:42.116Z,0.03
2019-01-04T12:01:11.588Z,-0.01
2019-01-04T12:03:41.067Z,-0.20
2019-01-04T12:06:10.597Z,-0.23
2019-01-04T12:08:40.036Z,-0.06
2019-01-04T12:11:09.508Z,0.04
2019-01-04T12:13:39.008Z,0.11
2019-01-04T12:16:08.505Z,-0.08
2019-01-04T12:18:38.148Z,-0.29
2019-01-04T12:21:07.763Z,-0.45
2019-01-04T12:23:37.266Z,-0.35
2019-01-04T12:26:06.822Z,-0.42
2019-01-04T12:28:36.420Z,-0.58
2019-01-04T12:31:06.031Z,-0.55
2019-01-04T12:33:35.576Z,-0.61
2019-01-04T12:36:05.086Z,-0.63
2019-01-04T12:38:34.632Z,-0.79
2019-01-04T12:41:04.264Z,-1.04
2019-01-04T12:43:34.135Z,-1.09
2019-01-04T12:46:03.939Z,-1.04
2019-01-04T12:48:33.407Z,-0.93
2019-01-04T12:51:02.874Z,-0.91
2019-01-04T12:53:32.322Z,-0.91
2019-01-04T12:56:01.916Z,-1.01
2019-01-04T12:58:31.384Z,-0.79
2019-01-04T13:01:01.122Z,-0.88
2019-01-04T13:03:30.641Z,-0.75
2019-01-04T13:06:00.103Z,-0.73
2019-01-04T13:08:29.606Z,-0.72
2019-01-04T13:10:59.069Z,-0.76
2019-01-04T13:13:28.554Z,-0.71
2019-01-04T13:15:58.370Z,-0.73
2019-01-04T13:18:27.856Z,-0.78
2019-01-04T13:20:57.386Z,-0.69
2019-01-04T13:23:26.893Z,-0.68
2019-01-04T13:25:56.366Z,-0.71
2019-01-04T13:28:25.903Z,-0.63
2019-01-04T13:30:55.478Z,-0.58
2019-01-04T13:33:24.941Z,-0.52
2019-01-04T13:35:54.452Z,-0.59
2019-01-04T13:38:23.961Z,-0.64
2019-01-04T13:40:53.424Z,-0.62
2019-01-04T13:43:22.924Z,-0.60
2019-01-04T13:45:52.550Z,-0.53
2019-01-04T13:48:22.089Z,-0.44
2019-01-04T13:50:51.729Z,-0.44
2019-01-04T13:53:21.215Z,-0.51
2019-01-04T13:55:50.716Z,-0.57
2019-01-04T13:58:20.171Z,-0.54
2019-01-04T14:00:49.637Z,-0.55
2019-01-04T14:03:19.131Z,-0.71
2019-01-04T14:05:48.667Z,-0.82
2019-01-04T14:08:18.241Z,-1.03
2019-01-04T14:10:47.825Z,-1.04
2019-01-04T14:13:17.302Z,-1.02
2019-01-04T14:15:46.790Z,-1.06
2019-01-04T14:18:16.363Z,-1.02
2019-01-04T14:20:45.850Z,-1.00
2019-01-04T14:23:15.399Z,-0.95
2019-01-04T14:25:44.941Z,-1.02
2019-01-04T14:28:14.421Z,-1.06
2019-01-04T14:30:44.019Z,-1.20
2019-01-04T14:33:13.598Z,-1.13
2019-01-04T14:35:43.164Z,-1.12
2019-01-04T14:38:12.635Z,-1.17
2019-01-04T14:40:42.413Z,-1.23
2019-01-04T14:43:11.997Z,-1.27
2019-01-04T14:45:41.639Z,-1.30
2019-01-04T14:48:11.209Z,-1.27
2019-01-04T14:50:40.621Z,-1.28
2019-01-04T14:53:10.105Z,-1.26
2019-01-04T14:55:39.747Z,-1.26
2019-01-04T14:58:09.251Z,-1.19
2019-01-04T15:00:38.777Z,-1.16
2019-01-04T15:03:08.440Z,-1.16
2019-01-04T15:05:38.303Z,-1.16
2019-01-04T15:08:07.907Z,-1.12
2019-01-04T15:10:37.444Z,-1.15
2019-01-04T15:13:06.996Z,-1.16
2019-01-04T15:15:36.563Z,-1.14
2019-01-04T15:18:06.091Z,-1.22
2019-01-04T15:20:36.076Z,-1.25
2019-01-04T15:23:05.560Z,-1.27
2019-01-04T15:25:35.089Z,-1.29
2019-01-04T15:28:04.578Z,-1.22
2019-01-04T15:30:34.043Z,-1.16
2019-01-04T15:33:03.591Z,-1.12
2019-01-04T15:35:33.097Z,-1.14
2019-01-04T15:38:02.811Z,-1.12
2019-01-04T15:40:32.339Z,-1.15
2019-01-04T15:43:02.008Z,-1.18
2019-01-04T15:45:31.556Z,-1.14
2019-01-04T15:48:01.153Z,-1.11
2019-01-04T15:50:30.642Z,-1.11
2019-01-04T15:53:00.238Z,-1.35
2019-01-04T15:55:29.771Z,-1.47
2019-01-04T15:57:59.760Z,-1.39
2019-01-04T16:00:29.259Z,-1.47
2019-01-04T16:02:58.805Z,-1.38
2019-01-04T16:05:28.363Z,-1.23
2019-01-04T16:07:58.048Z,-1.07
2019-01-04T16:10:27.812Z,-1.04
2019-01-04T16:12:57.496Z,-1.03
2019-01-04T16:15:28.402Z,-1.03
2019-01-04T16:17:57.907Z,-0.94
2019-01-04T16:20:27.633Z,-0.84
2019-01-04T16:22:57.105Z,-0.85
2019-01-04T16:25:26.625Z,-0.89
2019-01-04T16:27:56.074Z,-0.87
2019-01-04T16:30:25.587Z,-0.91
2019-01-04T16:32:55.166Z,-0.86
2019-01-04T16:35:24.750Z,-1.05
2019-01-04T16:37:54.485Z,-1.19
2019-01-04T16:40:24.439Z,-1.20
2019-01-04T16:42:53.904Z,-1.08
2019-01-04T16:45:23.392Z,-1.07
2019-01-04T16:47:52.982Z,-1.39
2019-01-04T16:50:22.557Z,-1.46
2019-01-04T16:52:52.251Z,-1.39
2019-01-04T16:55:23.142Z,-1.45
2019-01-04T16:57:52.838Z,-1.59
2019-01-04T17:00:22.383Z,-1.61
2019-01-04T17:02:52.062Z,-1.61
2019-01-04T17:05:21.861Z,-1.67
2019-01-04T17:07:51.869Z,-1.77
2019-01-04T17:10:21.296Z,-1.86
2019-01-04T17:12:50.829Z,-1.69
2019-01-04T17:15:20.334Z,-1.58
2019-01-04T17:17:49.821Z,-1.74
2019-01-04T17:20:19.378Z,-1.91
2019-01-04T17:22:48.921Z,-1.93
2019-01-04T17:25:18.374Z,-1.92
2019-01-04T17:27:47.961Z,-1.94
2019-01-04T17:30:17.449Z,-1.89
2019-01-04T17:32:46.933Z,-1.83
2019-01-04T17:35:16.449Z,-1.85
2019-01-04T17:37:45.968Z,-1.84
2019-01-04T17:40:15.493Z,-1.86
2019-01-04T17:42:45.130Z,-1.86
2019-01-04T17:45:14.796Z,-2.00
2019-01-04T17:47:44.590Z,-1.92
2019-01-04T17:50:14.072Z,-1.93
2019-01-04T17:52:43.529Z,-1.92
2019-01-04T17:55:13.055Z,-1.87
2019-01-04T17:57:42.601Z,-1.75
2019-01-04T18:00:13.903Z,-1.66
2019-01-04T18:02:43.439Z,-1.82
2019-01-04T18:05:13.173Z,-1.79
2019-01-04T18:07:42.706Z,-1.95
2019-01-04T18:10:12.222Z,-1.81
2019-01-04T18:12:41.811Z,-1.95
2019-01-04T18:15:11.342Z,-1.87
2019-01-04T18:17:40.835Z,-1.87
2019-01-04T18:20:11.099Z,-1.95
2019-01-04T18:22:40.641Z,-1.94
2019-01-04T18:25:10.127Z,-1.98
2019-01-04T18:27:39.637Z,-1.94
2019-01-04T18:30:11.043Z,-1.87
2019-01-04T18:32:41.064Z,-1.97
2019-01-04T18:35:10.566Z,-2.00
2019-01-04T18:37:40.068Z,-2.09
2019-01-04T18:40:10.906Z,-2.11
2019-01-04T18:42:40.647Z,-2.26
2019-01-04T18:45:10.148Z,-2.26
2019-01-04T18:47:41.378Z,-2.33
2019-01-04T18:50:14.636Z,-2.30
2019-01-04T18:52:44.197Z,-2.21
2019-01-04T18:55:13.685Z,-2.22
2019-01-04T18:57:43.311Z,-2.26
2019-01-04T19:00:13.314Z,-2.27
2019-01-04T19:02:44.113Z,-2.23
2019-01-04T19:05:13.593Z,-2.29
2019-01-04T19:07:43.478Z,-2.45
2019-01-04T19:10:12.925Z,-2.47
2019-01-04T19:12:42.353Z,-2.55
2019-01-04T19:15:12.204Z,-2.52
2019-01-04T19:17:41.695Z,-2.40
2019-01-04T19:20:11.182Z,-2.43
2019-01-04T19:22:40.728Z,-2.48
2019-01-04T19:25:10.265Z,-2.54
2019-01-04T19:27:43.156Z,-2.59
2019-01-04T19:30:12.950Z,-2.50
2019-01-04T19:32:43.164Z,-2.38
2019-01-04T19:35:12.665Z,-2.23
2019-01-04T19:37:42.115Z,-2.07
2019-01-04T19:40:12.004Z,-2.01
2019-01-04T19:42:41.461Z,-2.00
2019-01-04T19:45:11.106Z,-2.04
2019-01-04T19:47:40.604Z,-1.94
2019-01-04T19:50:21.776Z,-1.93
2019-01-04T19:52:51.392Z,-1.83
2019-01-04T19:55:20.900Z,-1.71
2019-01-04T19:57:50.387Z,-1.75
2019-01-04T20:00:19.891Z,-1.72
2019-01-04T20:02:49.445Z,-1.63
2019-01-04T20:06:12.352Z,-1.66
2019-01-04T20:09:39.346Z,-1.75
2019-01-04T20:13:06.350Z,-1.77
2019-01-04T20:16:12.651Z,-1.72
2019-01-04T20:19:13.438Z,-1.80
2019-01-04T20:22:01.884Z,-1.70
2019-01-04T20:24:56.517Z,-1.66
2019-01-04T20:27:49.636Z,-1.67
2019-01-04T20:30:38.445Z,-1.65
2019-01-04T20:33:30.052Z,-1.74
2019-01-04T20:36:18.434Z,-1.89
2019-01-04T20:39:15.931Z,-1.79
2019-01-04T20:42:13.504Z,-1.83
2019-01-04T20:45:00.561Z,-1.80
2019-01-04T20:47:57.694Z,-1.83
2019-01-04T20:50:56.695Z,-1.96
2019-01-04T20:53:43.927Z,-2.89
2019-01-04T20:56:43.066Z,-3.16
2019-01-04T20:59:31.539Z,-3.06
2019-01-04T21:02:18.568Z,-3.16
2019-01-04T21:05:05.916Z,-3.25
2019-01-04T21:07:59.658Z,-3.22
2019-01-04T21:11:00.047Z,-3.26
2019-01-04T21:13:47.205Z,-3.25
2019-01-04T21:16:38.791Z,-3.58
2019-01-04T21:19:39.585Z,-3.63
2019-01-04T21:22:38.187Z,-3.55
2019-01-04T21:25:26.727Z,-3.55
2019-01-04T21:28:18.545Z,-3.53
2019-01-04T21:31:05.711Z,-3.55
2019-01-04T21:34:05.974Z,-3.55
2019-01-04T21:36:53.306Z,-3.63
2019-01-04T21:39:40.297Z,-3.75
2019-01-04T21:42:33.678Z,-3.74
2019-01-04T21:45:20.868Z,-3.75
2019-01-04T21:48:09.374Z,-3.63
2019-01-04T21:51:06.675Z,-3.74
2019-01-04T21:54:01.677Z,-3.77
2019-01-04T21:56:59.464Z,-3.89
2019-01-04T21:59:46.683Z,-4.06
2019-01-04T22:02:41.028Z,-4.06
2019-01-04T22:05:32.414Z,-3.86
2019-01-04T22:08:19.829Z,-3.76
2019-01-04T22:11:09.278Z,-3.78
2019-01-04T22:14:15.884Z,-3.76
2019-01-04T22:17:02.682Z,-3.88
2019-01-04T22:19:49.706Z,-3.98
2019-01-04T22:22:38.229Z,-3.96
2019-01-04T22:25:45.108Z,-3.84
2019-01-04T22:28:36.234Z,-3.83
2019-01-04T22:31:27.247Z,-3.80
2019-01-04T22:34:17.892Z,-3.77
2019-01-04T22:37:18.452Z,-3.66
2019-01-04T22:40:37.081Z,-3.66
2019-01-04T22:43:28.782Z,-3.78
2019-01-04T22:46:26.489Z,-3.73
2019-01-04T22:49:27.019Z,-3.73
2019-01-04T22:52:21.500Z,-4.14
2019-01-04T22:55:22.224Z,-4.17
2019-01-04T22:58:25.745Z,-4.07
2019-01-04T23:01:14.184Z,-4.08
2019-01-04T23:04:08.469Z,-3.99
2019-01-04T23:07:09.189Z,-4.01
2019-01-04T23:09:58.579Z,-3.99
2019-01-04T23:12:56.156Z,-3.94
2019-01-04T23:15:43.528Z,-3.84
2019-01-04T23:18:47.248Z,-3.77
2019-01-04T23:22:20.307Z,-3.69
2019-01-04T23:25:14.840Z,-3.68
2019-01-04T23:28:09.499Z,-3.82
2019-01-04T23:30:56.546Z,-3.96
2019-01-04T23:34:00.374Z,-3.74
2019-01-04T23:37:03.964Z,-3.85
2019-01-04T23:40:12.903Z,-3.83
2019-01-04T23:43:03.454Z,-3.70
2019-01-04T23:45:54.880Z,-3.73
2019-01-04T23:48:52.462Z,-3.65
2019-01-04T23:51:54.213Z,-3.57
2019-01-04T23:54:43.177Z,-3.73
2019-01-04T23:57:34.718Z,-3.96
